createdAt,value
2022-09-12T06:02:53.644Z,9.40
2022-09-12T06:05:21.418Z,11.40
2022-09-12T06:07:48.905Z,11.85
2022-09-12T06:10:17.969Z,6.28
2022-09-12T06:12:45.985Z,10.40
2022-09-12T06:15:14.483Z,10.43
2022-09-12T06:17:42.084Z,12.23
2022-09-12T06:20:09.876Z,11.05
2022-09-12T06:22:37.623Z,8.73
2022-09-12T06:25:05.598Z,9.77
2022-09-12T06:27:33.032Z,11.25
2022-09-12T06:30:00.918Z,8.32
2022-09-12T06:32:31.511Z,14.33
2022-09-12T06:34:59.094Z,16.50
2022-09-12T06:37:26.622Z,10.55
2022-09-12T06:39:56.022Z,10.77
2022-09-12T06:42:23.858Z,12.95
2022-09-12T06:44:52.336Z,15.77
2022-09-12T06:47:21.204Z,10.38
2022-09-12T06:52:17.421Z,12.30
2022-09-12T06:54:45.113Z,14.13
2022-09-12T06:57:13.066Z,17.70
2022-09-12T06:59:40.623Z,16.38
2022-09-12T07:02:09.926Z,13.07
2022-09-12T07:07:05.708Z,12.63
2022-09-12T07:09:33.451Z,14.05
2022-09-12T07:12:04.368Z,15.48
2022-09-12T07:14:32.142Z,15.57
2022-09-12T07:16:59.662Z,14.98
2022-09-12T07:19:27.231Z,12.20
2022-09-12T07:21:58.532Z,12.65
2022-09-12T07:24:26.397Z,14.13
2022-09-12T07:26:53.871Z,11.52
2022-09-12T07:29:37.855Z,11.13
2022-09-12T07:32:06.580Z,12.25
2022-09-12T07:34:34.497Z,11.98
2022-09-12T07:37:02.013Z,10.83
2022-09-12T07:39:29.756Z,13.52
2022-09-12T07:41:57.765Z,17.85
2022-09-12T07:44:25.428Z,12.73
2022-09-12T07:46:52.869Z,17.77
2022-09-12T07:49:20.322Z,13.98
2022-09-12T07:51:47.826Z,11.50
2022-09-12T07:54:15.933Z,10.88
2022-09-12T07:56:43.564Z,13.87
2022-09-12T07:59:11.316Z,14.10
2022-09-12T08:01:39.957Z,16.58
2022-09-12T08:04:07.705Z,7.40
2022-09-12T08:06:36.984Z,10.47
2022-09-12T08:09:05.732Z,12.15
2022-09-12T08:11:33.492Z,9.25
2022-09-12T08:14:03.037Z,10.77
2022-09-12T08:16:31.967Z,9.75
2022-09-12T08:19:03.667Z,9.90
2022-09-12T08:21:33.225Z,10.82
2022-09-12T08:24:03.893Z,11.60
2022-09-12T08:26:33.484Z,9.52
2022-09-12T08:29:01.878Z,11.43
2022-09-12T08:31:29.321Z,8.80
2022-09-12T08:33:58.090Z,8.63
2022-09-12T08:36:27.768Z,13.32
2022-09-12T08:39:00.735Z,9.73
2022-09-12T08:41:35.189Z,6.93
2022-09-12T08:44:14.398Z,9.77
2022-09-12T08:47:08.922Z,5.95
2022-09-12T08:49:49.004Z,7.07
2022-09-12T08:52:27.741Z,6.45
2022-09-12T08:54:56.717Z,5.80
2022-09-12T08:57:24.865Z,5.30
2022-09-12T08:59:54.504Z,5.53
2022-09-12T09:02:24.892Z,4.60
2022-09-12T09:05:07.193Z,6.85
2022-09-12T09:07:40.963Z,7.05
2022-09-12T09:10:24.336Z,10.45
2022-09-12T09:12:59.101Z,7.28
2022-09-12T09:15:34.482Z,9.05
2022-09-12T09:18:09.997Z,5.43
2022-09-12T09:20:41.292Z,6.53
2022-09-12T09:23:33.466Z,6.22
2022-09-12T09:26:10.998Z,6.30
2022-09-12T09:28:54.218Z,6.97
2022-09-12T09:31:24.463Z,5.95
2022-09-12T09:33:55.534Z,6.55
2022-09-12T09:37:13.534Z,6.90
2022-09-12T09:39:50.210Z,6.28
2022-09-12T09:42:23.739Z,6.47
2022-09-12T09:44:54.401Z,6.03
2022-09-12T09:47:22.116Z,5.25
2022-09-12T09:49:49.872Z,6.57
2022-09-12T09:52:24.905Z,4.32
2022-09-12T09:55:01.072Z,4.07
2022-09-12T09:57:34.827Z,6.90
2022-09-12T10:00:41.758Z,4.75
2022-09-12T10:03:13.207Z,3.45
2022-09-12T10:05:49.054Z,5.05
2022-09-12T10:08:27.524Z,6.38
2022-09-12T10:10:56.225Z,3.72
2022-09-12T10:13:53.383Z,3.67
2022-09-12T10:16:23.699Z,4.68
2022-09-12T10:18:52.653Z,4.30
2022-09-12T10:24:06.490Z,5.15
2022-09-12T10:26:38.340Z,4.10
2022-09-12T10:29:18.854Z,5.55
2022-09-12T10:31:55.665Z,3.83
2022-09-12T10:34:44.746Z,3.33
2022-09-12T10:37:27.129Z,5.82
2022-09-12T10:39:57.411Z,2.28
2022-09-12T10:42:46.671Z,4.63
2022-09-12T10:45:32.455Z,4.63
2022-09-12T10:48:06.756Z,2.95
2022-09-12T10:50:43.142Z,3.85
2022-09-12T10:53:23.998Z,4.07
2022-09-12T10:56:06.902Z,3.80
2022-09-12T10:58:40.545Z,2.60
2022-09-12T11:01:42.329Z,3.28
2022-09-12T11:04:12.907Z,3.58
2022-09-12T11:06:45.013Z,4.95
2022-09-12T11:09:39.605Z,5.55
2022-09-12T11:12:22.814Z,2.88
2022-09-12T11:15:34.794Z,2.80
2022-09-12T11:18:30.392Z,3.97
2022-09-12T11:21:16.259Z,5.95
2022-09-12T11:24:04.516Z,3.50
2022-09-12T11:26:42.426Z,3.05
2022-09-12T11:29:31.760Z,2.33
2022-09-12T11:32:14.262Z,3.47
2022-09-12T11:35:03.131Z,3.00
2022-09-12T11:38:03.019Z,2.72
2022-09-12T11:40:45.543Z,3.03
2022-09-12T11:43:29.324Z,3.03
2022-09-12T11:46:05.225Z,6.60
2022-09-12T11:48:46.270Z,6.05
2022-09-12T11:51:19.918Z,3.15
2022-09-12T11:54:19.629Z,3.25
2022-09-12T11:56:50.842Z,2.55
2022-09-12T11:59:30.953Z,3.30
2022-09-12T12:02:00.362Z,2.40
2022-09-12T12:04:38.074Z,3.25
2022-09-12T12:07:08.128Z,2.00
2022-09-12T12:09:37.232Z,2.45
2022-09-12T12:12:09.415Z,1.73
2022-09-12T12:14:44.197Z,3.78
2022-09-12T12:17:24.245Z,4.15
2022-09-12T12:20:05.769Z,1.25
2022-09-12T12:22:36.090Z,3.85
2022-09-12T12:25:12.541Z,1.67
2022-09-12T12:28:01.818Z,1.27
2022-09-12T12:30:29.630Z,4.03
2022-09-12T12:33:07.397Z,2.33
2022-09-12T12:35:43.829Z,1.37
2022-09-12T12:38:33.743Z,1.98
2022-09-12T12:41:19.437Z,3.95
2022-09-12T12:43:50.871Z,5.47
2022-09-12T12:46:24.040Z,2.20
2022-09-12T12:48:54.400Z,3.83
2022-09-12T12:51:50.000Z,2.22
2022-09-12T12:54:27.182Z,2.33
2022-09-12T12:57:20.393Z,2.10
2022-09-12T12:59:52.488Z,4.93
2022-09-12T13:02:31.862Z,3.22
2022-09-12T13:05:02.612Z,1.75
2022-09-12T13:07:35.064Z,2.97
2022-09-12T13:10:04.551Z,1.08
2022-09-12T13:12:38.071Z,2.20
2022-09-12T13:15:46.563Z,1.73
2022-09-12T13:20:55.620Z,1.42
2022-09-12T13:23:26.119Z,0.90
2022-09-12T13:25:56.074Z,1.50
2022-09-12T13:28:26.445Z,1.88
2022-09-12T13:31:18.352Z,1.35
2022-09-12T13:33:56.003Z,0.77
2022-09-12T13:36:51.588Z,1.33
2022-09-12T13:39:29.191Z,1.88
2022-09-12T13:42:17.922Z,0.98
2022-09-12T13:47:36.923Z,1.15
2022-09-12T13:50:07.927Z,3.58
2022-09-12T13:52:38.280Z,1.02
2022-09-12T13:55:18.588Z,5.10
2022-09-12T13:57:46.101Z,5.57
2022-09-12T14:00:19.533Z,4.20
2022-09-12T14:02:48.500Z,3.08
2022-09-12T14:05:22.763Z,1.67
2022-09-12T14:07:58.512Z,3.08
2022-09-12T14:10:33.219Z,1.70
2022-09-12T14:13:03.404Z,2.38
2022-09-12T14:15:36.017Z,4.50
2022-09-12T14:18:06.808Z,2.35
2022-09-12T14:20:39.537Z,2.70
2022-09-12T14:23:27.519Z,3.83
2022-09-12T14:26:02.555Z,1.90
2022-09-12T14:28:31.309Z,1.52
2022-09-12T14:31:02.119Z,2.95
2022-09-12T14:33:45.901Z,3.03
2022-09-12T14:36:35.970Z,1.70
2022-09-12T14:39:18.512Z,7.82
2022-09-12T14:41:49.237Z,4.45
2022-09-12T14:44:21.066Z,2.33
2022-09-12T14:46:49.266Z,3.70
2022-09-12T14:49:46.079Z,4.95
2022-09-12T14:52:25.644Z,2.97
2022-09-12T14:54:57.786Z,2.13
2022-09-12T14:57:36.484Z,1.45
2022-09-12T15:00:12.707Z,3.40
2022-09-12T15:02:42.212Z,3.30
2022-09-12T15:05:10.772Z,2.80
2022-09-12T15:07:43.958Z,2.90
2022-09-12T15:10:22.953Z,4.82
2022-09-12T15:12:50.496Z,3.58
2022-09-12T15:15:20.815Z,6.25
2022-09-12T15:17:48.838Z,2.97
2022-09-12T15:20:16.786Z,3.10
2022-09-12T15:22:44.360Z,3.67
2022-09-12T15:25:13.353Z,2.73
2022-09-12T15:27:42.436Z,2.67
2022-09-12T15:30:12.201Z,3.13
2022-09-12T15:32:42.564Z,2.83
2022-09-12T15:35:23.142Z,3.78
2022-09-12T15:37:50.868Z,2.20
2022-09-12T15:40:19.139Z,3.42
2022-09-12T15:42:46.766Z,4.15
2022-09-12T15:45:25.940Z,3.42
2022-09-12T15:47:54.571Z,5.03
2022-09-12T15:50:22.498Z,5.30
2022-09-12T15:52:50.362Z,3.28
2022-09-12T15:55:28.332Z,2.77
2022-09-12T15:57:56.500Z,5.00
2022-09-12T16:00:24.802Z,3.90
2022-09-12T16:02:53.822Z,6.53
2022-09-12T16:05:25.279Z,2.92
2022-09-12T16:07:54.938Z,4.25
2022-09-12T16:10:29.696Z,3.58
2022-09-12T16:12:57.951Z,4.03
2022-09-12T16:15:26.178Z,3.88
2022-09-12T16:17:54.512Z,3.70
2022-09-12T16:20:22.790Z,8.27
2022-09-12T16:22:50.600Z,5.20
2022-09-12T16:25:18.587Z,3.25
2022-09-12T16:27:46.506Z,3.17
2022-09-12T16:30:14.537Z,3.00
2022-09-12T16:32:42.196Z,3.53
2022-09-12T16:35:09.998Z,3.83
2022-09-12T16:37:38.113Z,3.22
2022-09-12T16:40:07.329Z,5.10
2022-09-12T16:42:35.840Z,3.63
2022-09-12T16:45:03.830Z,4.30
2022-09-12T16:47:33.016Z,5.30
2022-09-12T16:50:00.532Z,3.67
2022-09-12T16:52:28.818Z,4.65
2022-09-12T16:54:56.452Z,2.42
2022-09-12T16:57:23.850Z,4.57
2022-09-12T16:59:52.118Z,2.60
2022-09-12T17:02:19.734Z,4.28
2022-09-12T17:04:47.548Z,3.50
2022-09-12T17:07:15.402Z,2.30
2022-09-12T17:09:47.433Z,2.92
2022-09-12T17:12:15.654Z,1.73
2022-09-12T17:14:43.371Z,1.83
2022-09-12T17:17:11.025Z,3.22
2022-09-12T17:19:38.876Z,5.22
2022-09-12T17:22:06.444Z,3.60
2022-09-12T17:24:34.166Z,3.60
2022-09-12T17:27:02.089Z,3.20
2022-09-12T17:29:29.834Z,2.97
2022-09-12T17:31:57.582Z,3.60
2022-09-12T17:34:25.308Z,3.08
2022-09-12T17:36:52.910Z,3.92
2022-09-12T17:39:20.685Z,3.13
2022-09-12T17:41:51.058Z,5.70
2022-09-12T17:44:20.236Z,7.75
2022-09-12T17:49:18.740Z,13.05
2022-09-12T17:51:46.425Z,12.25
2022-09-12T17:54:16.338Z,9.05
2022-09-12T17:56:49.758Z,10.55
2022-09-12T17:59:19.596Z,12.70
2022-09-12T18:02:05.968Z,11.52
2022-09-12T18:04:33.712Z,5.63
2022-09-12T18:07:01.757Z,5.47
2022-09-12T18:09:30.777Z,4.32
2022-09-12T18:11:59.265Z,5.50
2022-09-12T18:14:28.324Z,4.10
2022-09-12T18:16:57.647Z,4.68
2022-09-12T18:19:27.314Z,5.45
2022-09-12T18:21:56.147Z,4.13
2022-09-12T18:24:24.663Z,4.00
2022-09-12T18:26:52.745Z,4.10
2022-09-12T18:29:21.518Z,5.60
2022-09-12T18:34:18.508Z,6.03
2022-09-12T18:36:48.562Z,4.85
2022-09-12T18:39:17.970Z,2.90
2022-09-12T18:41:46.511Z,2.85
2022-09-12T18:44:14.755Z,3.50
2022-09-12T18:46:43.148Z,3.17
2022-09-12T18:49:11.152Z,2.22
2022-09-12T18:51:40.225Z,4.07
2022-09-12T18:54:12.784Z,3.00
2022-09-12T18:56:43.605Z,5.88
2022-09-12T18:59:15.560Z,3.90
2022-09-12T19:01:43.834Z,3.90
2022-09-12T19:04:13.660Z,4.03
2022-09-12T19:06:44.054Z,3.50
2022-09-12T19:09:14.756Z,1.92
2022-09-12T19:11:50.336Z,1.98
2022-09-12T19:14:22.614Z,3.58
2022-09-12T19:16:52.080Z,2.72
2022-09-12T19:19:21.288Z,3.30
2022-09-12T19:21:49.170Z,2.22
2022-09-12T19:24:17.517Z,1.65
2022-09-12T19:26:45.878Z,2.00
2022-09-12T19:29:14.799Z,3.70
2022-09-12T19:31:43.798Z,4.10
2022-09-12T19:34:13.388Z,4.78
2022-09-12T19:36:45.513Z,4.30
2022-09-12T19:39:17.407Z,4.55
2022-09-12T19:41:45.936Z,5.03
2022-09-12T19:44:14.587Z,4.75
2022-09-12T19:46:42.856Z,3.78
2022-09-12T19:49:12.956Z,4.53
2022-09-12T19:51:40.926Z,3.78
2022-09-12T19:54:08.454Z,5.00
2022-09-12T19:56:36.071Z,6.15
2022-09-12T19:59:05.505Z,5.88
2022-09-12T20:01:33.312Z,7.85
2022-09-12T20:04:01.256Z,6.93
2022-09-12T20:06:29.004Z,5.55
2022-09-12T20:08:56.548Z,7.13
2022-09-12T20:11:25.838Z,6.07
2022-09-12T20:13:53.552Z,5.47
2022-09-12T20:16:29.076Z,4.25
2022-09-12T20:19:00.607Z,4.47
2022-09-12T20:21:31.937Z,3.63
2022-09-12T20:24:15.867Z,3.80
2022-09-12T20:26:43.371Z,5.05
2022-09-12T20:29:11.499Z,6.97
2022-09-12T20:31:41.624Z,4.65
2022-09-12T20:34:16.002Z,4.97
2022-09-12T20:36:43.982Z,3.60
2022-09-12T20:39:14.628Z,4.63
2022-09-12T20:41:42.468Z,4.38
2022-09-12T20:44:10.326Z,4.47
2022-09-12T20:46:37.863Z,3.92
2022-09-12T20:49:05.762Z,3.20
2022-09-12T20:51:33.245Z,5.35
2022-09-12T20:54:03.287Z,2.80
2022-09-12T20:56:32.929Z,2.75
2022-09-12T20:59:01.104Z,2.50
2022-09-12T21:01:31.399Z,2.73
2022-09-12T21:04:01.810Z,2.92
2022-09-12T21:06:29.342Z,2.80
2022-09-12T21:09:00.695Z,4.22
2022-09-12T21:11:29.135Z,3.20
2022-09-12T21:13:56.815Z,2.67
2022-09-12T21:16:24.333Z,4.25
2022-09-12T21:18:57.360Z,4.00
2022-09-12T21:21:25.805Z,3.17
2022-09-12T21:23:57.932Z,3.80
2022-09-12T21:26:25.883Z,3.13
2022-09-12T21:28:53.838Z,3.40
2022-09-12T21:31:21.481Z,2.70
2022-09-12T21:33:49.590Z,2.75
2022-09-12T21:36:17.332Z,3.05
2022-09-12T21:38:45.110Z,3.05
2022-09-12T21:41:15.565Z,3.17
2022-09-12T21:43:44.048Z,2.42
2022-09-12T21:46:12.179Z,2.70
2022-09-12T21:48:39.742Z,3.77
2022-09-12T21:51:07.252Z,3.80
2022-09-12T21:53:34.938Z,4.72
2022-09-12T21:56:05.358Z,4.05
2022-09-12T21:58:33.375Z,3.55
2022-09-12T22:01:01.593Z,3.90
2022-09-12T22:03:29.922Z,2.78
2022-09-12T22:06:02.979Z,4.38
2022-09-12T22:08:32.531Z,2.28
2022-09-12T22:11:02.179Z,3.10
2022-09-12T22:13:33.832Z,3.35
2022-09-12T22:16:03.164Z,2.58
2022-09-12T22:18:35.732Z,2.88
2022-09-12T22:21:04.747Z,5.50
2022-09-12T22:26:18.074Z,2.15
2022-09-12T22:28:47.287Z,2.60
2022-09-12T22:31:15.752Z,3.20
2022-09-12T22:33:43.624Z,2.28
2022-09-12T22:36:11.626Z,2.60
2022-09-12T22:38:39.374Z,3.90
2022-09-12T22:41:09.321Z,4.82
2022-09-12T22:43:37.524Z,3.85
2022-09-12T22:46:09.516Z,2.58
2022-09-12T22:48:38.189Z,3.42
2022-09-12T22:51:06.319Z,3.78
2022-09-12T22:53:34.960Z,2.08
2022-09-12T22:56:03.986Z,4.07
2022-09-12T23:00:59.580Z,2.92
2022-09-12T23:03:27.177Z,2.33
2022-09-12T23:05:54.676Z,5.35
2022-09-12T23:08:22.177Z,3.88
2022-09-12T23:10:49.861Z,3.00
2022-09-12T23:13:17.863Z,2.80
2022-09-12T23:15:45.565Z,2.97
2022-09-12T23:18:13.288Z,4.55
2022-09-12T23:20:40.978Z,5.13
2022-09-12T23:23:08.572Z,4.13
2022-09-12T23:25:36.193Z,4.63
2022-09-12T23:28:04.336Z,4.18
2022-09-12T23:30:32.110Z,3.15
2022-09-12T23:33:01.146Z,4.55
2022-09-12T23:37:56.056Z,3.53
2022-09-12T23:40:23.660Z,3.35
2022-09-12T23:42:51.419Z,5.22
2022-09-12T23:45:18.876Z,3.97
2022-09-12T23:47:46.310Z,3.20
2022-09-12T23:50:13.858Z,2.63
2022-09-12T23:52:41.330Z,2.50
2022-09-12T23:55:09.280Z,4.25
2022-09-12T23:57:37.045Z,1.77
